Time;durP1;ratioP1;P1;durP2;ratioP2;P2;SDS_P1;SDS_P2;PMS_P1;PMS_P2;Temp;Humidity;BMP_temperature;BMP_pressure;BME280_temperature;BME280_humidity;BME280_pressure;Samples;Min_cycle;Max_cycle;Signal;HPM_P1;HPM_P2
2022/07/30 00:01:38;;;;;;;14.25;10.00;;;;;;;-148.88;100.00;75273.53;5073877;28;20032;-87
2022/07/30 00:04:04;;;;;;;12.45;8.75;;;;;;;-148.88;100.00;75283.66;5075070;28;20025;-87
2022/07/30 00:06:29;;;;;;;14.30;9.30;;;;;;;-148.88;100.00;75283.66;5075107;28;20029;-86
2022/07/30 00:08:54;;;;;;;16.60;10.02;;;;;;;-148.88;100.00;75293.81;5075117;28;20032;-88
2022/07/30 00:11:20;;;;;;;20.92;10.32;;;;;;;-148.88;100.00;75289.75;5074931;28;20048;-87
2022/07/30 00:13:46;;;;;;;12.68;9.82;;;;;;;-148.88;100.00;75279.59;5073761;28;20512;-88
2022/07/30 00:16:11;;;;;;;15.88;10.50;;;;;;;-148.88;100.00;75273.53;5073983;28;20028;-88
2022/07/30 00:18:36;;;;;;;17.45;10.90;;;;;;;-148.88;100.00;75275.56;5075216;28;20071;-88
2022/07/30 00:24:12;;;;;;;16.98;10.93;;;;;;;-148.88;100.00;75285.69;5457212;23;20042;-83
2022/07/30 00:26:40;;;;;;;16.80;11.05;;;;;;;-148.88;100.00;75273.53;4995131;28;20161;-85
2022/07/30 00:29:07;;;;;;;14.85;12.00;;;;;;;-148.88;100.00;75265.41;4994102;28;20408;-85
2022/07/30 00:31:44;;;;;;;15.73;11.73;;;;;;;-148.88;100.00;75275.56;4994949;28;20026;-85
2022/07/30 00:34:16;;;;;;;17.73;11.20;;;;;;;-148.88;100.00;75273.53;4994977;28;20376;-85
2022/07/30 00:36:44;;;;;;;17.23;11.30;;;;;;;-148.88;100.00;75277.59;4995214;28;20388;-85
2022/07/30 00:39:10;;;;;;;19.38;12.55;;;;;;;-148.88;100.00;75285.69;4994705;28;20033;-85
2022/07/30 00:44:13;;;;;;;16.55;12.25;;;;;;;-148.88;100.00;75277.59;5037658;23;20504;-89
2022/07/30 00:46:47;;;;;;;14.98;11.70;;;;;;;-148.88;100.00;75277.59;4995544;28;20098;-89
2022/07/30 00:49:15;;;;;;;16.05;11.13;;;;;;;-148.88;100.00;75273.53;4995148;28;20022;-89
2022/07/30 00:51:41;;;;;;;15.77;12.30;;;;;;;-148.88;100.00;75283.66;4995329;28;20026;-88
2022/07/30 00:54:06;;;;;;;16.23;12.00;;;;;;;-148.88;100.00;75281.66;4995004;28;20027;-89
2022/07/30 00:56:35;;;;;;;18.02;11.10;;;;;;;-148.88;100.00;75295.84;4993961;28;20022;-88
2022/07/30 00:59:03;;;;;;;13.98;11.57;;;;;;;-148.88;100.00;75301.94;4995340;28;20034;-88
2022/07/30 01:01:44;;;;;;;14.07;11.73;;;;;;;-148.88;100.00;75293.81;4994168;28;20113;-89
2022/07/30 01:04:32;;;;;;;18.42;12.35;;;;;;;-148.88;100.00;75287.72;4994009;28;20026;-88
2022/07/30 01:07:04;;;;;;;16.08;11.80;;;;;;;-148.88;100.00;75281.66;4918761;29;20046;-87
2022/07/30 01:09:29;;;;;;;18.30;11.95;;;;;;;-148.88;100.00;75285.69;4984883;28;20058;-88
2022/07/30 01:11:55;;;;;;;18.90;11.98;;;;;;;-148.88;100.00;75281.66;4994127;28;20064;-89
2022/07/30 01:14:38;;;;;;;17.20;12.55;;;;;;;-148.88;100.00;75281.66;4994241;28;20036;-88
2022/07/30 01:17:04;;;;;;;18.17;12.60;;;;;;;-148.88;100.00;75279.59;4994828;28;20026;-89
2022/07/30 01:19:54;;;;;;;17.08;11.40;;;;;;;-148.88;100.00;75277.59;4995412;28;20034;-89
2022/07/30 01:26:18;;;;;;;17.58;12.52;;;;;;;-148.88;100.00;75303.97;4943510;28;20524;-88
2022/07/30 01:28:54;;;;;;;13.27;11.82;;;;;;;-148.88;100.00;75295.84;4993196;28;20088;-88
2022/07/30 01:31:22;;;;;;;14.27;11.48;;;;;;;-148.88;100.00;75293.81;4993970;28;20030;-90
2022/07/30 01:33:54;;;;;;;14.50;11.43;;;;;;;-148.88;100.00;75287.72;4994748;28;20033;-87
2022/07/30 01:36:26;;;;;;;14.82;11.43;;;;;;;-148.88;100.00;75283.66;4993868;28;20050;-87
2022/07/30 01:38:58;;;;;;;13.13;10.27;;;;;;;-148.88;100.00;75285.69;4993594;28;20030;-88
2022/07/30 01:41:25;;;;;;;14.33;10.70;;;;;;;-148.88;100.00;75281.66;4994197;28;20042;-88
2022/07/30 01:43:54;;;;;;;18.17;11.52;;;;;;;-148.88;100.00;75289.75;4993769;28;20111;-88
2022/07/30 01:46:25;;;;;;;19.35;11.95;;;;;;;-148.88;100.00;75293.81;4993680;28;20384;-88
2022/07/30 01:48:56;;;;;;;17.33;11.77;;;;;;;-148.88;100.00;75301.94;4992992;28;20018;-88
2022/07/30 01:51:22;;;;;;;18.67;13.20;;;;;;;-148.88;100.00;75312.09;4993415;28;20113;-87
2022/07/30 01:53:59;;;;;;;16.85;13.05;;;;;;;-148.88;100.00;75316.16;4993409;28;20026;-88
2022/07/30 01:56:34;;;;;;;19.45;15.02;;;;;;;-148.88;100.00;75322.25;4994028;28;20026;-88
2022/07/30 01:59:12;;;;;;;25.67;16.42;;;;;;;-148.88;100.00;75322.25;4993751;28;20030;-87
2022/07/30 02:01:37;;;;;;;20.30;15.77;;;;;;;-148.88;100.00;75332.41;4993872;28;20025;-87
2022/07/30 02:04:16;;;;;;;22.83;17.00;;;;;;;-148.88;100.00;75322.25;4993109;28;20026;-88
2022/07/30 02:07:08;;;;;;;23.23;17.05;;;;;;;-148.88;100.00;75326.31;4994536;28;20388;-88
2022/07/30 02:09:58;;;;;;;21.27;16.83;;;;;;;-148.88;100.00;75326.31;4993319;28;20392;-88
2022/07/30 02:12:32;;;;;;;19.65;15.48;;;;;;;-148.88;100.00;75322.25;4993132;28;20042;-87
2022/07/30 02:15:49;;;;;;;17.85;15.90;;;;;;;-148.88;100.00;75322.25;4994029;28;20084;-87
2022/07/30 02:18:42;;;;;;;18.83;16.00;;;;;;;-148.88;100.00;75326.31;4950426;28;20034;-88
2022/07/30 02:21:09;;;;;;;20.88;15.23;;;;;;;-148.88;100.00;75320.22;4994006;28;20027;-89
2022/07/30 02:23:45;;;;;;;18.73;15.07;;;;;;;-148.88;100.00;75318.19;4996677;28;20133;-88
2022/07/30 02:26:20;;;;;;;18.00;15.10;;;;;;;-148.88;100.00;75318.19;4997768;28;20026;-88
2022/07/30 02:28:55;;;;;;;17.42;13.73;;;;;;;-148.88;100.00;75318.19;4997293;28;20041;-88
2022/07/30 02:31:26;;;;;;;16.85;13.90;;;;;;;-148.88;100.00;75326.31;4996585;28;20472;-89
2022/07/30 02:33:58;;;;;;;17.85;13.52;;;;;;;-148.88;100.00;75328.34;4998660;28;20081;-89
2022/07/30 02:36:32;;;;;;;16.48;13.13;;;;;;;-148.88;100.00;75332.41;4996893;28;20084;-88
2022/07/30 02:38:58;;;;;;;;;;;;;;;-148.88;100.00;75330.38;4997540;28;20484;-88
2022/07/30 02:41:27;;;;;;;19.08;15.27;;;;;;;-148.88;100.00;75330.38;4997305;28;19917;-88
2022/07/30 02:43:56;;;;;;;22.33;14.75;;;;;;;-148.88;100.00;75330.38;4996499;28;20089;-87
2022/07/30 02:46:26;;;;;;;19.65;14.20;;;;;;;-148.88;100.00;75342.56;4997790;28;20396;-87
2022/07/30 02:49:05;;;;;;;17.90;14.45;;;;;;;-148.88;100.00;75338.50;4997504;28;20032;-89
2022/07/30 02:51:38;;;;;;;18.08;14.50;;;;;;;-148.88;100.00;75338.50;4998251;28;20086;-87
2022/07/30 02:54:10;;;;;;;18.92;14.40;;;;;;;-148.88;100.00;75342.56;4996662;28;20030;-88
2022/07/30 02:56:45;;;;;;;20.05;14.05;;;;;;;-148.88;100.00;75348.66;4998021;28;20038;-88
2022/07/30 02:59:17;;;;;;;18.73;14.18;;;;;;;-148.88;100.00;75348.66;4996473;28;20026;-88
2022/07/30 03:02:15;;;;;;;19.23;13.57;;;;;;;-148.88;100.00;75350.69;4996108;28;20026;-87
2022/07/30 03:04:44;;;;;;;18.55;14.82;;;;;;;-148.88;100.00;75356.78;4945079;28;20437;-88
2022/07/30 03:07:22;;;;;;;19.90;13.05;;;;;;;-148.88;100.00;75350.69;4997513;28;20022;-88
2022/07/30 03:09:50;;;;;;;19.13;14.88;;;;;;;-148.88;100.00;75350.69;4996121;28;20022;-88
2022/07/30 03:12:20;;;;;;;17.75;14.15;;;;;;;-148.88;100.00;75354.75;4996605;28;20033;-86
2022/07/30 03:14:48;;;;;;;19.38;14.07;;;;;;;-148.88;100.00;75362.88;4996236;28;20037;-88
2022/07/30 03:17:16;;;;;;;16.02;13.27;;;;;;;-148.88;100.00;75368.97;4997047;28;20041;-89
2022/07/30 03:19:43;;;;;;;18.05;13.77;;;;;;;-148.88;100.00;75371.00;4995835;28;20518;-88
2022/07/30 03:22:13;;;;;;;17.23;14.07;;;;;;;-148.88;100.00;75379.13;4996527;28;20027;-88
2022/07/30 03:24:43;;;;;;;19.30;13.32;;;;;;;-148.88;100.00;75375.06;4996639;28;20104;-88
2022/07/30 03:27:12;;;;;;;18.00;14.30;;;;;;;-148.88;100.00;75375.06;4995958;28;20023;-88
2022/07/30 03:29:39;;;;;;;16.73;14.02;;;;;;;-148.88;100.00;75387.25;4996118;28;20114;-88
2022/07/30 03:32:11;;;;;;;22.15;15.07;;;;;;;-148.88;100.00;75387.25;4995531;28;20473;-88
2022/07/30 03:34:40;;;;;;;24.85;16.83;;;;;;;-148.88;100.00;75395.38;4996123;28;20168;-88
2022/07/30 03:37:09;;;;;;;30.20;17.75;;;;;;;-148.88;100.00;75405.53;4995672;28;20030;-88
2022/07/30 03:39:36;;;;;;;23.95;17.42;;;;;;;-148.88;100.00;75399.44;4996049;28;20173;-88
2022/07/30 03:42:08;;;;;;;27.48;17.58;;;;;;;-148.88;100.00;75407.56;4996258;28;20026;-89
2022/07/30 03:44:34;;;;;;;24.45;17.88;;;;;;;-148.88;100.00;75411.63;4997195;28;20022;-88
2022/07/30 03:47:08;;;;;;;28.35;16.58;;;;;;;-148.88;100.00;75409.59;4996029;28;20164;-88
2022/07/30 03:49:33;;;;;;;21.35;16.80;;;;;;;-148.88;100.00;75415.69;4996331;28;20025;-87
2022/07/30 03:52:01;;;;;;;26.25;16.85;;;;;;;-148.88;100.00;75415.69;4995926;28;20057;-87
2022/07/30 03:54:27;;;;;;;20.48;16.13;;;;;;;-148.88;100.00;75423.81;4996040;28;20026;-87
2022/07/30 03:57:06;;;;;;;24.33;16.05;;;;;;;-148.88;100.00;75415.69;4996062;28;20373;-89
2022/07/30 03:59:32;;;;;;;24.92;16.75;;;;;;;-148.88;100.00;75415.69;4996835;28;20081;-88
2022/07/30 04:02:02;;;;;;;24.20;17.23;;;;;;;-148.88;100.00;75411.63;5007477;28;20022;-88
2022/07/30 04:04:29;;;;;;;23.90;18.35;;;;;;;-148.88;100.00;75415.69;5001508;28;20038;-88
2022/07/30 04:06:58;;;;;;;23.50;17.27;;;;;;;-148.88;100.00;75413.66;4997427;28;20030;-89
2022/07/30 04:09:24;;;;;;;23.45;18.08;;;;;;;-148.88;100.00;75415.69;4997741;28;20424;-88
2022/07/30 04:11:51;;;;;;;23.27;17.20;;;;;;;-148.88;100.00;75411.63;4996283;28;20546;-88
2022/07/30 04:14:22;;;;;;;24.08;17.52;;;;;;;-148.88;100.00;75415.69;4997328;28;20055;-88
2022/07/30 04:17:19;;;;;;;26.13;17.30;;;;;;;-148.88;100.00;75409.59;4995803;28;20117;-88
2022/07/30 04:19:52;;;;;;;21.98;17.42;;;;;;;-148.88;100.00;75405.53;4997062;28;20029;-88
2022/07/30 04:22:33;;;;;;;27.10;18.27;;;;;;;-148.88;100.00;75409.59;4996805;28;20092;-88
2022/07/30 04:25:01;;;;;;;26.13;17.33;;;;;;;-148.88;100.00;75417.72;4996322;28;20097;-88
2022/07/30 04:27:31;;;;;;;23.08;17.10;;;;;;;-148.88;100.00;75415.69;4995103;28;20050;-88
2022/07/30 04:29:57;;;;;;;22.05;17.70;;;;;;;-148.88;100.00;75413.66;4995846;28;20369;-88
2022/07/30 04:32:22;;;;;;;21.98;17.65;;;;;;;-148.88;100.00;75413.66;4995711;28;20033;-88
2022/07/30 04:34:50;;;;;;;24.98;16.60;;;;;;;-148.88;100.00;75409.59;4996429;28;20053;-89
2022/07/30 04:40:12;;;;;;;21.00;16.88;;;;;;;-148.88;100.00;75417.72;4997206;28;20030;-88
2022/07/30 04:42:37;;;;;;;25.85;18.60;;;;;;;-148.88;100.00;75417.72;4996402;28;20033;-89
2022/07/30 04:45:05;;;;;;;28.75;18.35;;;;;;;-148.88;100.00;75415.69;4996557;28;20121;-88
2022/07/30 04:47:31;;;;;;;19.80;16.55;;;;;;;-148.88;100.00;75411.63;4996081;28;20022;-87
2022/07/30 04:50:05;;;;;;;19.73;17.52;;;;;;;-148.88;100.00;75407.56;4995255;28;20031;-89
2022/07/30 04:52:37;;;;;;;25.00;18.20;;;;;;;-148.88;100.00;75411.63;4997001;28;20026;-88
2022/07/30 04:55:05;;;;;;;28.85;19.00;;;;;;;-148.88;100.00;75431.94;4995202;28;20034;-89
2022/07/30 04:57:32;;;;;;;30.60;19.35;;;;;;;-148.88;100.00;75440.06;4996075;28;20034;-89
2022/07/30 04:59:58;;;;;;;29.02;18.90;;;;;;;-148.88;100.00;75452.25;4995383;28;20034;-89
2022/07/30 05:02:28;;;;;;;31.05;20.05;;;;;;;-148.88;100.00;75448.19;4994762;28;20022;-87
2022/07/30 05:04:54;;;;;;;31.80;19.75;;;;;;;-148.88;100.00;75438.03;4994361;28;20022;-88
2022/07/30 05:07:20;;;;;;;29.08;18.92;;;;;;;-148.88;100.00;75438.03;4994142;28;20026;-87
2022/07/30 05:09:46;;;;;;;25.90;19.70;;;;;;;-148.88;100.00;75423.81;4995429;28;20028;-87
2022/07/30 05:12:12;;;;;;;34.15;19.15;;;;;;;-148.88;100.00;75440.06;4994082;28;20033;-87
2022/07/30 05:14:37;;;;;;;28.30;20.08;;;;;;;-148.88;100.00;75442.09;4993966;28;20022;-87
2022/07/30 05:17:03;;;;;;;26.75;19.60;;;;;;;-148.88;100.00;75444.13;4994989;28;20028;-87
2022/07/30 05:19:28;;;;;;;28.45;19.50;;;;;;;-148.88;100.00;75440.06;4994262;28;20119;-87
2022/07/30 05:21:53;;;;;;;32.60;20.75;;;;;;;-148.88;100.00;75438.03;4994187;28;20029;-87
2022/07/30 05:24:19;;;;;;;28.95;20.33;;;;;;;-148.88;100.00;75440.06;4995069;28;20026;-88
2022/07/30 05:26:44;;;;;;;29.80;19.33;;;;;;;-148.88;100.00;75440.06;4994319;28;20022;-86
2022/07/30 05:29:10;;;;;;;24.52;20.00;;;;;;;-148.88;100.00;75436.00;4995179;28;20022;-88
2022/07/30 05:31:35;;;;;;;24.30;20.48;;;;;;;-148.88;100.00;75436.00;4993620;28;20551;-87
2022/07/30 05:34:01;;;;;;;21.65;19.45;;;;;;;-148.88;100.00;75431.94;4993235;28;20033;-88
2022/07/30 05:36:26;;;;;;;34.15;19.27;;;;;;;-148.88;100.00;75433.97;4993877;28;20121;-86
2022/07/30 05:38:51;;;;;;;28.05;19.27;;;;;;;-148.88;100.00;75436.00;4992995;28;20053;-87
2022/07/30 05:41:17;;;;;;;28.95;20.67;;;;;;;-148.88;100.00;75444.13;4993186;28;20052;-86
2022/07/30 05:43:42;;;;;;;28.13;19.92;;;;;;;-148.88;100.00;75446.16;4993229;28;20027;-88
2022/07/30 05:46:07;;;;;;;25.85;21.73;;;;;;;-148.88;100.00;75440.06;4994987;28;20026;-87
2022/07/30 05:48:34;;;;;;;28.60;21.30;;;;;;;-148.88;100.00;75431.94;4993404;28;20117;-86
2022/07/30 05:51:03;;;;;;;29.08;21.50;;;;;;;-148.88;100.00;75429.91;4993068;28;20397;-87
2022/07/30 05:53:29;;;;;;;33.60;25.38;;;;;;;-148.88;100.00;75421.78;4993225;28;20022;-86
2022/07/30 05:55:55;;;;;;;31.02;25.38;;;;;;;-148.88;100.00;75415.69;4993138;28;20026;-88
2022/07/30 05:58:20;;;;;;;28.70;23.13;;;;;;;-148.88;100.00;75411.63;4995445;28;20025;-87
2022/07/30 06:00:46;;;;;;;29.65;21.20;;;;;;;-148.88;100.00;75403.50;4993555;28;20100;-88
2022/07/30 06:03:11;;;;;;;25.23;20.25;;;;;;;-148.88;100.00;75403.50;4994011;28;20054;-88
2022/07/30 06:05:37;;;;;;;24.02;20.73;;;;;;;-148.88;100.00;75399.44;4993135;28;20026;-88
2022/07/30 06:08:02;;;;;;;27.67;21.33;;;;;;;-148.88;100.00;75399.44;4993106;28;20029;-88
2022/07/30 06:10:28;;;;;;;30.23;21.95;;;;;;;-148.88;100.00;75397.41;4994545;28;20101;-88
2022/07/30 06:12:54;;;;;;;29.77;22.08;;;;;;;-148.88;100.00;75395.38;4992759;28;20113;-88
2022/07/30 06:15:19;;;;;;;26.52;22.25;;;;;;;-148.88;100.00;75389.28;4992813;28;20045;-87
2022/07/30 06:17:50;;;;;;;30.83;22.63;;;;;;;-148.88;100.00;75381.16;4993037;28;20078;-87
2022/07/30 06:20:17;;;;;;;27.63;21.45;;;;;;;-148.88;100.00;75379.13;4992847;28;20030;-87
2022/07/30 06:22:43;;;;;;;30.98;23.60;;;;;;;-148.88;100.00;75381.16;4993035;28;20048;-88
2022/07/30 06:25:09;;;;;;;29.13;23.33;;;;;;;-148.88;100.00;75366.94;4993407;28;20129;-87
2022/07/30 06:27:35;;;;;;;27.42;23.17;;;;;;;-148.88;100.00;75358.81;4992870;28;20019;-87
2022/07/30 06:30:05;;;;;;;32.10;23.27;;;;;;;-148.88;100.00;75356.78;4992603;28;20057;-87
2022/07/30 06:32:30;;;;;;;28.90;23.33;;;;;;;-148.88;100.00;75366.94;4993003;28;20116;-87
2022/07/30 06:34:58;;;;;;;29.33;21.70;;;;;;;-148.88;100.00;75362.88;4992752;28;20034;-87
2022/07/30 06:37:23;;;;;;;26.08;20.48;;;;;;;-148.88;100.00;75358.81;4993042;28;20034;-86
2022/07/30 06:39:49;;;;;;;29.70;20.80;;;;;;;-148.88;100.00;75358.81;4993141;28;20026;-87
2022/07/30 06:44:43;;;;;;;27.13;21.80;;;;;;;-148.88;100.00;75334.44;4991038;28;20073;-75
2022/07/30 06:47:09;;;;;;;23.42;20.67;;;;;;;-148.88;100.00;75322.25;4993345;28;20397;-75
2022/07/30 06:49:34;;;;;;;29.13;22.00;;;;;;;-148.88;100.00;75318.19;4993230;28;20014;-75
2022/07/30 06:52:00;;;;;;;29.75;21.88;;;;;;;-148.88;100.00;75306.00;4993272;28;20030;-75
2022/07/30 06:54:26;;;;;;;29.67;21.52;;;;;;;-148.88;100.00;75299.91;4993565;28;20023;-75
2022/07/30 06:56:51;;;;;;;22.75;19.90;;;;;;;-148.88;100.00;75306.00;4993202;28;20019;-75
2022/07/30 06:59:16;;;;;;;24.45;18.83;;;;;;;-148.88;100.00;75301.94;4993234;28;20117;-75
2022/07/30 07:01:42;;;;;;;23.75;18.67;;;;;;;-148.88;100.00;75306.00;4993486;28;20081;-75
2022/07/30 07:04:07;;;;;;;23.77;18.10;;;;;;;-148.88;100.00;75299.91;4993270;28;20026;-75
2022/07/30 07:06:33;;;;;;;20.67;17.77;;;;;;;-148.88;100.00;75301.94;4992027;28;20030;-75
2022/07/30 07:08:58;;;;;;;20.80;18.17;;;;;;;-148.88;100.00;75287.72;4996867;28;20033;-75
2022/07/30 07:11:24;;;;;;;20.95;17.73;;;;;;;-148.88;100.00;75277.59;4996580;28;20018;-75
2022/07/30 07:13:49;;;;;;;18.35;16.33;;;;;;;-148.88;100.00;75261.34;4996881;28;20061;-75
2022/07/30 07:16:15;;;;;;;23.55;17.67;;;;;;;-148.88;100.00;75265.41;4996810;28;20054;-76
2022/07/30 07:18:40;;;;;;;20.60;16.75;;;;;;;-148.88;100.00;75261.34;4996486;28;20041;-75
2022/07/30 07:21:07;;;;;;;20.60;17.83;;;;;;;-148.88;100.00;75232.91;4996348;28;20102;-75
2022/07/30 07:23:32;;;;;;;24.48;16.63;;;;;;;-148.88;100.00;75228.84;4996425;28;20034;-76
2022/07/30 07:25:57;;;;;;;17.83;14.77;;;;;;;-148.88;100.00;75216.66;4996687;28;20032;-76
2022/07/30 07:28:23;;;;;;;17.10;15.30;;;;;;;-148.88;100.00;75202.44;4996407;28;20022;-75
2022/07/30 07:30:48;;;;;;;16.95;14.85;;;;;;;-148.88;100.00;75204.47;4996373;28;20022;-75
2022/07/30 07:33:14;;;;;;;18.90;14.68;;;;;;;-148.88;100.00;75220.72;4995020;28;20033;-75
2022/07/30 07:35:39;;;;;;;18.55;13.95;;;;;;;-148.88;100.00;75214.63;4996248;28;20023;-75
2022/07/30 07:38:04;;;;;;;19.27;13.80;;;;;;;-148.88;100.00;75208.53;4996375;28;20042;-75
2022/07/30 07:40:29;;;;;;;16.15;12.90;;;;;;;-148.88;100.00;75188.22;4996066;28;20030;-75
2022/07/30 07:42:55;;;;;;;15.57;12.95;;;;;;;-148.88;100.00;75194.31;4994774;28;20041;-75
2022/07/30 07:45:20;;;;;;;15.55;13.52;;;;;;;-148.88;100.00;75184.16;4996058;28;20022;-75
2022/07/30 07:47:47;;;;;;;17.35;12.32;;;;;;;-148.88;100.00;75178.06;4996023;28;20041;-75
2022/07/30 07:50:14;;;;;;;17.08;13.52;;;;;;;-148.88;100.00;75165.88;4995893;28;20022;-75
2022/07/30 07:52:40;;;;;;;17.65;14.05;;;;;;;-148.88;100.00;75167.91;4995893;28;20030;-75
2022/07/30 07:55:06;;;;;;;16.08;13.02;;;;;;;-148.88;100.00;75163.84;4995879;28;20393;-75
2022/07/30 07:57:37;;;;;;;17.73;13.32;;;;;;;-148.88;100.00;75147.59;4996138;28;20026;-75
2022/07/30 08:00:04;;;;;;;17.48;13.05;;;;;;;-148.88;97.37;75147.59;4995684;28;20026;-76
2022/07/30 08:02:29;;;;;;;16.30;13.88;;;;;;;-148.88;96.30;75139.47;4995878;28;20022;-76
2022/07/30 08:04:55;;;;;;;18.23;13.30;;;;;;;-148.88;96.03;75129.31;4995671;28;20495;-76
2022/07/30 08:07:20;;;;;;;16.05;12.27;;;;;;;-148.88;95.00;75106.97;4995550;28;20028;-75
2022/07/30 08:09:45;;;;;;;16.63;12.65;;;;;;;-148.88;94.98;75096.81;4995535;28;20029;-75
2022/07/30 08:12:12;;;;;;;19.10;13.80;;;;;;;-148.88;96.57;75088.72;4995628;28;20025;-76
2022/07/30 08:14:37;;;;;;;18.88;14.27;;;;;;;-148.88;96.62;75086.69;4995597;28;20034;-76
2022/07/30 08:17:03;;;;;;;18.20;13.95;;;;;;;-148.88;94.73;75084.66;4994375;28;20033;-75
2022/07/30 08:19:28;;;;;;;17.23;9.85;;;;;;;-148.88;90.53;75094.81;4995285;28;20531;-75
2022/07/30 08:21:53;;;;;;;12.93;9.90;;;;;;;-148.88;89.61;75092.78;4994114;28;20030;-75
2022/07/30 08:24:19;;;;;;;15.52;10.25;;;;;;;-148.88;91.25;75082.63;4994144;28;20024;-76
2022/07/30 08:26:44;;;;;;;15.77;11.98;;;;;;;-148.88;93.36;75048.09;4995261;28;20387;-75
2022/07/30 08:29:09;;;;;;;14.30;10.98;;;;;;;-148.88;90.58;75050.13;4995333;28;20022;-75
2022/07/30 08:31:34;;;;;;;13.90;9.70;;;;;;;-148.88;87.06;75056.22;4995119;28;20026;-75
2022/07/30 08:34:00;;;;;;;11.30;8.38;;;;;;;-148.88;82.92;75042.00;4995108;28;20395;-76
2022/07/30 08:36:25;;;;;;;11.95;9.38;;;;;;;-148.88;86.19;75039.97;4995076;28;20036;-75
2022/07/30 08:38:50;;;;;;;13.63;9.32;;;;;;;-148.88;86.68;75001.38;4994977;28;20026;-76
2022/07/30 08:41:19;;;;;;;13.82;8.80;;;;;;;-148.88;86.93;74985.13;4994878;28;20022;-76
2022/07/30 08:43:46;;;;;;;14.20;10.80;;;;;;;-148.88;86.54;74989.19;4994854;28;20030;-76
2022/07/30 08:46:13;;;;;;;13.18;9.77;;;;;;;-148.88;88.55;74985.13;4993665;28;20030;-76
2022/07/30 08:48:41;;;;;;;10.43;8.63;;;;;;;-148.88;83.38;74964.81;4993614;28;20030;-76
2022/07/30 08:51:06;;;;;;;9.80;8.23;;;;;;;-148.88;80.93;74926.25;4994775;28;20110;-76
2022/07/30 08:53:33;;;;;;;13.63;9.65;;;;;;;-148.88;83.58;74932.34;4995214;28;20097;-75
2022/07/30 08:55:59;;;;;;;11.95;9.38;;;;;;;-148.88;82.15;74912.03;4993481;28;20228;-75
2022/07/30 08:58:31;;;;;;;17.05;9.77;;;;;;;-148.88;83.96;74905.94;4994681;28;20097;-76
2022/07/30 09:00:57;;;;;;;13.32;10.57;;;;;;;-148.88;84.73;74899.84;4994590;28;20085;-76
2022/07/30 09:03:22;;;;;;;14.20;10.70;;;;;;;-148.88;84.59;74918.13;4994613;28;20369;-75
2022/07/30 09:05:48;;;;;;;11.57;8.73;;;;;;;-148.88;81.01;74877.50;4994812;28;20539;-75
2022/07/30 09:08:13;;;;;;;11.98;9.95;;;;;;;-148.88;81.46;74883.59;4994652;28;20080;-75
2022/07/30 09:10:41;;;;;;;12.55;8.90;;;;;;;-148.88;80.50;74863.28;4994405;28;20100;-76
2022/07/30 09:13:25;;;;;;;12.70;9.57;;;;;;;-148.88;80.64;74842.97;4994687;28;20492;-76
2022/07/30 09:15:52;;;;;;;11.85;10.02;;;;;;;-148.88;79.54;74838.91;4994487;28;20065;-76
2022/07/30 09:18:38;;;;;;;15.15;10.35;;;;;;;-148.88;77.06;74808.47;4994394;28;20026;-76
2022/07/30 09:21:13;;;;;;;13.25;9.70;;;;;;;-148.88;78.03;74796.28;4994273;28;20484;-75
2022/07/30 09:23:38;;;;;;;11.80;9.52;;;;;;;-148.88;76.02;74782.06;4994263;28;20030;-76
2022/07/30 09:26:04;;;;;;;13.73;9.77;;;;;;;-148.88;77.92;74788.16;4994256;28;20037;-76
2022/07/30 09:28:31;;;;;;;11.63;9.43;;;;;;;-148.88;75.97;74751.59;4994380;28;20388;-76
2022/07/30 09:30:57;;;;;;;13.57;9.75;;;;;;;-148.88;79.32;74745.50;5011267;28;20002;-75
2022/07/30 09:33:34;;;;;;;11.75;6.75;;;;;;;-148.88;73.84;74729.25;4996563;28;20124;-75
2022/07/30 09:36:00;;;;;;;10.07;6.82;;;;;;;-148.88;71.17;74713.00;4994172;28;20030;-75
2022/07/30 09:38:26;;;;;;;10.95;7.55;;;;;;;-148.88;69.68;74672.41;4992721;28;20025;-76
2022/07/30 09:40:53;;;;;;;9.43;7.03;;;;;;;-148.88;70.15;74664.28;4992672;28;20128;-76
2022/07/30 09:43:19;;;;;;;10.30;7.70;;;;;;;-148.88;69.81;74648.03;4994021;28;20030;-76
2022/07/30 09:46:00;;;;;;;11.90;8.43;;;;;;;-148.88;68.06;74664.28;4993891;28;20376;-76
2022/07/30 09:48:26;;;;;;;8.98;6.50;;;;;;;-148.88;67.28;74672.41;4993934;28;20097;-76
2022/07/30 09:50:54;;;;;;;9.07;7.47;;;;;;;-148.88;66.99;74641.94;4993185;28;20058;-76
2022/07/30 09:53:23;;;;;;;8.85;7.05;;;;;;;-148.88;67.96;74611.47;4993797;28;20514;-76
2022/07/30 09:55:49;;;;;;;10.98;7.70;;;;;;;-148.88;71.00;74646.00;4994072;28;20022;-76
2022/07/30 09:58:14;;;;;;;11.48;8.80;;;;;;;-148.88;66.78;74643.97;4993766;28;20026;-76
2022/07/30 10:00:40;;;;;;;12.15;8.23;;;;;;;-148.88;67.13;74609.44;4993746;28;20030;-76
2022/07/30 10:03:40;;;;;;;12.95;7.93;;;;;;;-148.88;65.98;74599.28;4993683;28;20373;-76
2022/07/30 10:06:05;;;;;;;10.38;8.43;;;;;;;-148.88;66.24;74591.19;4972290;28;20034;-77
2022/07/30 10:08:46;;;;;;;12.02;8.18;;;;;;;-148.88;68.46;74599.28;4992716;28;20038;-76
2022/07/30 10:11:18;;;;;;;12.77;7.50;;;;;;;-148.88;69.31;74579.00;4993609;28;20026;-76
2022/07/30 10:13:45;;;;;;;10.75;6.10;;;;;;;-148.88;64.30;74583.06;4993685;28;20030;-76
2022/07/30 10:16:12;;;;;;;7.68;5.10;;;;;;;-148.88;nan;74530.25;4993573;28;20053;-76
2022/07/30 10:18:37;;;;;;;8.65;6.18;;;;;;;-148.88;62.86;74538.38;4993589;28;20035;-76
2022/07/30 10:21:03;;;;;;;7.22;4.57;;;;;;;-148.88;61.39;74583.06;4993459;28;20025;-76
2022/07/30 10:23:31;;;;;;;7.05;3.90;;;;;;;-148.88;62.04;74591.19;4993562;28;20026;-76
2022/07/30 10:25:58;;;;;;;6.78;3.80;;;;;;;-148.88;58.72;74520.09;4993528;28;20476;-76
2022/07/30 10:28:24;;;;;;;5.88;3.63;;;;;;;-148.88;55.80;74497.78;4993524;28;20035;-76
2022/07/30 10:30:50;;;;;;;5.38;3.60;;;;;;;-148.88;58.00;74461.22;4993360;28;20030;-76
2022/07/30 10:33:16;;;;;;;7.20;4.05;;;;;;;-148.88;57.32;74520.09;4993437;28;20431;-76
2022/07/30 10:35:42;;;;;;;7.90;3.70;;;;;;;-148.88;56.33;74509.94;4992159;28;20368;-76
2022/07/30 10:38:10;;;;;;;8.07;4.45;;;;;;;-148.88;56.60;74475.44;4992419;28;20488;-76
2022/07/30 10:40:40;;;;;;;9.75;3.90;;;;;;;-148.88;56.89;74436.84;4993313;28;20062;-76
2022/07/30 10:43:15;;;;;;;8.23;3.85;;;;;;;-148.88;57.33;74455.13;4994534;28;20554;-76
2022/07/30 10:45:55;;;;;;;6.68;4.47;;;;;;;-148.88;57.19;74465.28;4997329;28;20034;-76
2022/07/30 10:48:21;;;;;;;9.68;4.53;;;;;;;-148.88;58.85;74447.00;4995918;28;20091;-76
2022/07/30 10:50:55;;;;;;;12.25;5.03;;;;;;;-148.88;56.11;74495.75;4996973;28;20543;-76
2022/07/30 10:53:45;;;;;;;6.40;4.55;;;;;;;-148.88;55.99;74497.78;4997079;28;20022;-76
2022/07/30 10:56:17;;;;;;;7.63;4.28;;;;;;;-148.88;56.98;74516.03;4995754;28;20507;-76
2022/07/30 10:59:01;;;;;;;9.25;4.75;;;;;;;-148.88;55.97;74495.75;4996897;28;20488;-76
2022/07/30 11:01:46;;;;;;;;;;;;;;;-148.88;54.50;74469.34;4997149;28;20050;-76
2022/07/30 11:04:19;;;;;;;9.10;4.30;;;;;;;-148.88;53.02;74438.88;4996709;28;19910;-77
2022/07/30 11:06:45;;;;;;;6.93;3.95;;;;;;;-148.88;53.99;74461.22;4996853;28;20108;-76
2022/07/30 11:09:37;;;;;;;6.05;4.03;;;;;;;-148.88;54.67;74489.66;4995569;28;20439;-76
2022/07/30 11:12:03;;;;;;;6.82;3.90;;;;;;;-148.88;52.50;74475.44;4995534;28;20036;-76
2022/07/30 11:14:44;;;;;;;4.88;3.70;;;;;;;-148.88;51.74;74453.09;4995441;28;20030;-76
2022/07/30 11:17:09;;;;;;;8.30;3.67;;;;;;;-148.88;51.94;74400.31;4996550;28;20030;-76
2022/07/30 11:20:05;;;;;;;7.30;3.63;;;;;;;-148.88;51.82;74380.00;4996492;28;20082;-76
2022/07/30 11:22:37;;;;;;;5.88;3.67;;;;;;;-148.88;51.75;74331.25;4996405;28;20411;-76
2022/07/30 11:25:03;;;;;;;8.20;4.00;;;;;;;-148.88;50.61;74315.03;4996691;28;20026;-75